KPAH/PAH METAR and TAF weather

Enter ICAO airport designator
Station Type Date Time Source
KPAH METAR 2021/07/30 23:53 UTC NOAA

KPAH 302353Z 06004KT 9SM CLR 30/22 A3001 RMK AO2 SLP158 T03000217 10322 20300 55003


Station Type Date Time Source
KPAH Decoded METAR 2021/07/30 23:53 UTC NOAA

BARKLEY REGIONAL AIRPORT, KY, United States (KPAH) 37-03N 088-46W 118M
Jul 30, 2021 - 07:53 PM EDT / 2021.07.30 2353 UTC
Wind: from the ENE (060 degrees) at 5 MPH (4 KT):0
Visibility: 9 mile(s):0
Sky conditions: clear
Temperature: 86.0 F (30.0 C)
Heat index: 91.4 F (33.0 C):1
Dew Point: 71.1 F (21.7 C)
Relative Humidity: 61%
Pressure (altimeter): 30.01 in. Hg (1016 hPa)
Pressure tendency: 0.01 inches (0.3 hPa) lower than three hours ago
ob: KPAH 302353Z 06004KT 9SM CLR 30/22 A3001 RMK AO2 SLP158 T03000217 10322 20300 55003
cycle: 0

Station Type Date Time Source
KPAH TAF 2021/07/30 22:03 UTC NOAA

TAF
AMD KPAH 302200Z 3022/3118 03006KT P6SM SCT030 BKN050
TEMPO 3022/3101 BKN030
FM310100 VRB03KT P6SM SCT200

Example: see airport list